sensor_id;sensor_type;location;lat;lon;timestamp;P1;durP1;ratioP1;P2;durP2;ratioP2
66402;SDS011;53212;52.112;5.144;2023-04-03T00:00:29;1.80;;;1.70;;
66402;SDS011;53212;52.112;5.144;2023-04-03T00:02:55;1.70;;;1.50;;
66402;SDS011;53212;52.112;5.144;2023-04-03T00:05:20;1.80;;;1.70;;
66402;SDS011;53212;52.112;5.144;2023-04-03T00:07:49;1.90;;;1.60;;
66402;SDS011;53212;52.112;5.144;2023-04-03T00:10:15;3.20;;;1.70;;
66402;SDS011;53212;52.112;5.144;2023-04-03T00:12:41;2.40;;;2.00;;
66402;SDS011;53212;52.112;5.144;2023-04-03T00:15:07;3.30;;;1.70;;
66402;SDS011;53212;52.112;5.144;2023-04-03T00:17:32;2.80;;;1.50;;
66402;SDS011;53212;52.112;5.144;2023-04-03T00:19:58;3.10;;;1.70;;
66402;SDS011;53212;52.112;5.144;2023-04-03T00:22:24;2.00;;;1.60;;
66402;SDS011;53212;52.112;5.144;2023-04-03T00:24:51;2.40;;;1.50;;
66402;SDS011;53212;52.112;5.144;2023-04-03T00:27:17;2.60;;;1.70;;
66402;SDS011;53212;52.112;5.144;2023-04-03T00:29:42;2.70;;;1.90;;
66402;SDS011;53212;52.112;5.144;2023-04-03T00:32:08;3.20;;;2.20;;
66402;SDS011;53212;52.112;5.144;2023-04-03T00:34:33;4.70;;;2.10;;
66402;SDS011;53212;52.112;5.144;2023-04-03T00:36:59;2.30;;;2.00;;
66402;SDS011;53212;52.112;5.144;2023-04-03T00:39:25;2.10;;;1.70;;
66402;SDS011;53212;52.112;5.144;2023-04-03T00:41:50;3.30;;;1.80;;
66402;SDS011;53212;52.112;5.144;2023-04-03T00:45:20;2.40;;;1.80;;
66402;SDS011;53212;52.112;5.144;2023-04-03T00:47:06;2.30;;;1.70;;
66402;SDS011;53212;52.112;5.144;2023-04-03T00:49:36;2.40;;;1.50;;
66402;SDS011;53212;52.112;5.144;2023-04-03T00:52:03;2.20;;;2.00;;
66402;SDS011;53212;52.112;5.144;2023-04-03T00:54:32;4.60;;;1.70;;
66402;SDS011;53212;52.112;5.144;2023-04-03T00:57:02;2.10;;;1.80;;
66402;SDS011;53212;52.112;5.144;2023-04-03T00:59:34;2.80;;;2.00;;
66402;SDS011;53212;52.112;5.144;2023-04-03T01:02:05;2.80;;;1.70;;
66402;SDS011;53212;52.112;5.144;2023-04-03T01:04:32;3.00;;;1.90;;
66402;SDS011;53212;52.112;5.144;2023-04-03T01:07:23;2.00;;;1.80;;
66402;SDS011;53212;52.112;5.144;2023-04-03T01:09:57;3.00;;;2.00;;
66402;SDS011;53212;52.112;5.144;2023-04-03T01:12:31;2.10;;;1.90;;
66402;SDS011;53212;52.112;5.144;2023-04-03T01:15:05;2.80;;;1.90;;
66402;SDS011;53212;52.112;5.144;2023-04-03T01:17:35;2.30;;;1.80;;
66402;SDS011;53212;52.112;5.144;2023-04-03T01:25:31;2.80;;;1.90;;
66402;SDS011;53212;52.112;5.144;2023-04-03T01:27:57;4.90;;;2.00;;
66402;SDS011;53212;52.112;5.144;2023-04-03T01:30:26;3.30;;;1.70;;
66402;SDS011;53212;52.112;5.144;2023-04-03T01:32:56;3.10;;;1.90;;
66402;SDS011;53212;52.112;5.144;2023-04-03T01:35:22;2.00;;;1.80;;
66402;SDS011;53212;52.112;5.144;2023-04-03T01:37:48;2.50;;;2.00;;
66402;SDS011;53212;52.112;5.144;2023-04-03T01:40:13;2.30;;;1.90;;
66402;SDS011;53212;52.112;5.144;2023-04-03T01:42:39;3.10;;;1.90;;
66402;SDS011;53212;52.112;5.144;2023-04-03T01:45:05;2.40;;;1.90;;
66402;SDS011;53212;52.112;5.144;2023-04-03T01:47:31;2.50;;;1.80;;
66402;SDS011;53212;52.112;5.144;2023-04-03T01:49:56;3.10;;;1.90;;
66402;SDS011;53212;52.112;5.144;2023-04-03T01:52:22;2.10;;;1.70;;
66402;SDS011;53212;52.112;5.144;2023-04-03T01:54:47;5.40;;;2.00;;
66402;SDS011;53212;52.112;5.144;2023-04-03T01:57:13;3.00;;;1.90;;
66402;SDS011;53212;52.112;5.144;2023-04-03T01:59:40;3.50;;;1.90;;
66402;SDS011;53212;52.112;5.144;2023-04-03T02:02:06;5.40;;;2.40;;
66402;SDS011;53212;52.112;5.144;2023-04-03T02:04:32;3.00;;;1.80;;
66402;SDS011;53212;52.112;5.144;2023-04-03T02:06:57;3.10;;;1.70;;
66402;SDS011;53212;52.112;5.144;2023-04-03T02:09:23;3.80;;;1.90;;
66402;SDS011;53212;52.112;5.144;2023-04-03T02:11:49;4.60;;;2.00;;
66402;SDS011;53212;52.112;5.144;2023-04-03T02:14:14;2.00;;;1.70;;
66402;SDS011;53212;52.112;5.144;2023-04-03T02:16:40;2.90;;;1.90;;
66402;SDS011;53212;52.112;5.144;2023-04-03T02:19:06;1.80;;;1.70;;
66402;SDS011;53212;52.112;5.144;2023-04-03T02:21:32;4.00;;;2.10;;
66402;SDS011;53212;52.112;5.144;2023-04-03T02:23:57;3.70;;;2.20;;
66402;SDS011;53212;52.112;5.144;2023-04-03T02:26:23;3.80;;;2.20;;
66402;SDS011;53212;52.112;5.144;2023-04-03T02:28:49;3.70;;;2.10;;
66402;SDS011;53212;52.112;5.144;2023-04-03T02:31:15;4.80;;;2.10;;
66402;SDS011;53212;52.112;5.144;2023-04-03T02:33:40;1.90;;;1.60;;
66402;SDS011;53212;52.112;5.144;2023-04-03T02:36:06;2.40;;;1.90;;
66402;SDS011;53212;52.112;5.144;2023-04-03T02:38:33;2.30;;;1.70;;
66402;SDS011;53212;52.112;5.144;2023-04-03T02:41:03;2.70;;;1.90;;
66402;SDS011;53212;52.112;5.144;2023-04-03T02:43:31;3.60;;;2.10;;
66402;SDS011;53212;52.112;5.144;2023-04-03T02:45:57;3.40;;;2.10;;
66402;SDS011;53212;52.112;5.144;2023-04-03T02:48:24;2.30;;;2.00;;
66402;SDS011;53212;52.112;5.144;2023-04-03T02:50:51;3.00;;;2.20;;
66402;SDS011;53212;52.112;5.144;2023-04-03T02:53:16;3.20;;;2.00;;
66402;SDS011;53212;52.112;5.144;2023-04-03T02:55:42;2.30;;;1.90;;
66402;SDS011;53212;52.112;5.144;2023-04-03T02:58:08;3.10;;;1.80;;
66402;SDS011;53212;52.112;5.144;2023-04-03T03:00:34;3.50;;;2.10;;
66402;SDS011;53212;52.112;5.144;2023-04-03T03:03:00;2.20;;;1.90;;
66402;SDS011;53212;52.112;5.144;2023-04-03T03:05:27;2.60;;;2.20;;
66402;SDS011;53212;52.112;5.144;2023-04-03T03:07:53;2.20;;;2.00;;
66402;SDS011;53212;52.112;5.144;2023-04-03T03:10:20;5.50;;;2.00;;
66402;SDS011;53212;52.112;5.144;2023-04-03T03:12:45;3.70;;;2.30;;
66402;SDS011;53212;52.112;5.144;2023-04-03T03:15:11;2.40;;;2.00;;
66402;SDS011;53212;52.112;5.144;2023-04-03T03:17:37;3.80;;;2.20;;
66402;SDS011;53212;52.112;5.144;2023-04-03T03:20:04;3.70;;;2.10;;
66402;SDS011;53212;52.112;5.144;2023-04-03T03:22:31;2.60;;;1.70;;
66402;SDS011;53212;52.112;5.144;2023-04-03T03:24:57;3.20;;;1.90;;
66402;SDS011;53212;52.112;5.144;2023-04-03T03:27:22;4.60;;;1.80;;
66402;SDS011;53212;52.112;5.144;2023-04-03T03:29:49;3.80;;;1.70;;
66402;SDS011;53212;52.112;5.144;2023-04-03T03:32:15;3.50;;;1.90;;
66402;SDS011;53212;52.112;5.144;2023-04-03T03:34:41;2.90;;;2.10;;
66402;SDS011;53212;52.112;5.144;2023-04-03T03:37:06;2.90;;;1.90;;
66402;SDS011;53212;52.112;5.144;2023-04-03T03:39:32;2.60;;;2.10;;
66402;SDS011;53212;52.112;5.144;2023-04-03T03:41:58;4.30;;;2.00;;
66402;SDS011;53212;52.112;5.144;2023-04-03T03:44:23;4.40;;;1.80;;
66402;SDS011;53212;52.112;5.144;2023-04-03T03:46:49;4.00;;;2.00;;
66402;SDS011;53212;52.112;5.144;2023-04-03T03:49:14;6.70;;;2.10;;
66402;SDS011;53212;52.112;5.144;2023-04-03T03:51:40;5.20;;;2.20;;
66402;SDS011;53212;52.112;5.144;2023-04-03T03:54:06;3.40;;;2.00;;
66402;SDS011;53212;52.112;5.144;2023-04-03T03:56:33;3.30;;;2.40;;
66402;SDS011;53212;52.112;5.144;2023-04-03T03:58:58;5.90;;;3.00;;
66402;SDS011;53212;52.112;5.144;2023-04-03T04:01:24;2.00;;;1.90;;
66402;SDS011;53212;52.112;5.144;2023-04-03T04:03:50;3.80;;;2.20;;
66402;SDS011;53212;52.112;5.144;2023-04-03T04:06:15;4.90;;;2.20;;
66402;SDS011;53212;52.112;5.144;2023-04-03T04:08:41;3.70;;;2.50;;
66402;SDS011;53212;52.112;5.144;2023-04-03T04:11:08;3.40;;;2.20;;
66402;SDS011;53212;52.112;5.144;2023-04-03T04:13:34;3.50;;;2.40;;
66402;SDS011;53212;52.112;5.144;2023-04-03T04:16:00;3.10;;;2.10;;
66402;SDS011;53212;52.112;5.144;2023-04-03T04:18:26;4.00;;;2.10;;
66402;SDS011;53212;52.112;5.144;2023-04-03T04:20:51;3.00;;;2.10;;
66402;SDS011;53212;52.112;5.144;2023-04-03T04:23:17;3.60;;;2.20;;
66402;SDS011;53212;52.112;5.144;2023-04-03T04:25:47;2.90;;;2.10;;
66402;SDS011;53212;52.112;5.144;2023-04-03T04:28:13;4.50;;;2.10;;
66402;SDS011;53212;52.112;5.144;2023-04-03T04:30:39;2.90;;;2.10;;
66402;SDS011;53212;52.112;5.144;2023-04-03T04:33:04;3.00;;;1.90;;
66402;SDS011;53212;52.112;5.144;2023-04-03T04:35:30;5.70;;;2.40;;
66402;SDS011;53212;52.112;5.144;2023-04-03T04:37:56;2.60;;;2.00;;
66402;SDS011;53212;52.112;5.144;2023-04-03T04:40:21;3.70;;;2.20;;
66402;SDS011;53212;52.112;5.144;2023-04-03T04:42:47;5.30;;;2.30;;
66402;SDS011;53212;52.112;5.144;2023-04-03T04:45:12;7.50;;;2.40;;
66402;SDS011;53212;52.112;5.144;2023-04-03T04:47:38;3.20;;;2.00;;
66402;SDS011;53212;52.112;5.144;2023-04-03T04:50:04;3.20;;;2.20;;
66402;SDS011;53212;52.112;5.144;2023-04-03T04:52:30;3.20;;;2.10;;
66402;SDS011;53212;52.112;5.144;2023-04-03T04:54:56;3.10;;;2.30;;
66402;SDS011;53212;52.112;5.144;2023-04-03T04:57:21;4.90;;;2.40;;
66402;SDS011;53212;52.112;5.144;2023-04-03T04:59:47;6.60;;;2.50;;
66402;SDS011;53212;52.112;5.144;2023-04-03T05:02:12;4.60;;;2.60;;
66402;SDS011;53212;52.112;5.144;2023-04-03T05:04:38;4.00;;;2.50;;
66402;SDS011;53212;52.112;5.144;2023-04-03T05:07:03;4.30;;;2.40;;
66402;SDS011;53212;52.112;5.144;2023-04-03T05:09:29;4.40;;;2.50;;
66402;SDS011;53212;52.112;5.144;2023-04-03T05:11:54;3.50;;;2.00;;
66402;SDS011;53212;52.112;5.144;2023-04-03T05:14:21;3.30;;;2.20;;
66402;SDS011;53212;52.112;5.144;2023-04-03T05:16:47;3.30;;;2.30;;
66402;SDS011;53212;52.112;5.144;2023-04-03T05:19:13;2.90;;;2.10;;
66402;SDS011;53212;52.112;5.144;2023-04-03T05:21:38;2.80;;;2.40;;
66402;SDS011;53212;52.112;5.144;2023-04-03T05:24:04;4.40;;;2.50;;
66402;SDS011;53212;52.112;5.144;2023-04-03T05:26:34;6.10;;;2.80;;
66402;SDS011;53212;52.112;5.144;2023-04-03T05:29:00;3.40;;;2.30;;
66402;SDS011;53212;52.112;5.144;2023-04-03T05:31:25;5.10;;;2.40;;
66402;SDS011;53212;52.112;5.144;2023-04-03T05:33:54;3.70;;;2.30;;
66402;SDS011;53212;52.112;5.144;2023-04-03T05:36:20;2.90;;;2.30;;
66402;SDS011;53212;52.112;5.144;2023-04-03T05:38:46;3.80;;;2.20;;
66402;SDS011;53212;52.112;5.144;2023-04-03T05:41:13;3.60;;;2.30;;
66402;SDS011;53212;52.112;5.144;2023-04-03T05:43:40;5.90;;;2.70;;
66402;SDS011;53212;52.112;5.144;2023-04-03T05:46:11;7.40;;;2.20;;
66402;SDS011;53212;52.112;5.144;2023-04-03T05:48:37;6.60;;;2.50;;
66402;SDS011;53212;52.112;5.144;2023-04-03T05:51:04;5.20;;;2.50;;
66402;SDS011;53212;52.112;5.144;2023-04-03T05:53:32;3.90;;;2.40;;
66402;SDS011;53212;52.112;5.144;2023-04-03T05:56:02;4.40;;;2.70;;
66402;SDS011;53212;52.112;5.144;2023-04-03T05:58:28;3.10;;;2.10;;
66402;SDS011;53212;52.112;5.144;2023-04-03T06:00:54;5.50;;;2.50;;
66402;SDS011;53212;52.112;5.144;2023-04-03T06:03:20;5.00;;;2.30;;
66402;SDS011;53212;52.112;5.144;2023-04-03T06:05:45;4.70;;;2.50;;
66402;SDS011;53212;52.112;5.144;2023-04-03T06:08:11;3.50;;;2.30;;
66402;SDS011;53212;52.112;5.144;2023-04-03T06:10:38;4.30;;;2.20;;
66402;SDS011;53212;52.112;5.144;2023-04-03T06:13:04;4.20;;;2.40;;
66402;SDS011;53212;52.112;5.144;2023-04-03T06:15:29;3.30;;;2.20;;
66402;SDS011;53212;52.112;5.144;2023-04-03T06:17:55;3.80;;;2.20;;
66402;SDS011;53212;52.112;5.144;2023-04-03T06:20:21;3.80;;;2.10;;
66402;SDS011;53212;52.112;5.144;2023-04-03T06:22:47;3.50;;;2.10;;
66402;SDS011;53212;52.112;5.144;2023-04-03T06:25:13;5.20;;;2.50;;
66402;SDS011;53212;52.112;5.144;2023-04-03T06:27:39;2.80;;;2.00;;
66402;SDS011;53212;52.112;5.144;2023-04-03T06:30:07;4.90;;;2.20;;
66402;SDS011;53212;52.112;5.144;2023-04-03T06:32:32;4.10;;;2.10;;
66402;SDS011;53212;52.112;5.144;2023-04-03T06:34:58;3.90;;;2.10;;
66402;SDS011;53212;52.112;5.144;2023-04-03T06:37:24;5.70;;;2.10;;
66402;SDS011;53212;52.112;5.144;2023-04-03T06:39:54;4.60;;;2.50;;
66402;SDS011;53212;52.112;5.144;2023-04-03T06:42:20;6.10;;;2.80;;
66402;SDS011;53212;52.112;5.144;2023-04-03T06:44:46;5.00;;;2.20;;
66402;SDS011;53212;52.112;5.144;2023-04-03T06:47:15;4.80;;;2.10;;
66402;SDS011;53212;52.112;5.144;2023-04-03T06:49:42;8.40;;;2.30;;
66402;SDS011;53212;52.112;5.144;2023-04-03T06:52:08;6.40;;;2.60;;
66402;SDS011;53212;52.112;5.144;2023-04-03T06:54:35;4.20;;;2.40;;
66402;SDS011;53212;52.112;5.144;2023-04-03T06:57:01;6.20;;;2.40;;
66402;SDS011;53212;52.112;5.144;2023-04-03T06:59:27;6.10;;;2.80;;
66402;SDS011;53212;52.112;5.144;2023-04-03T07:01:52;5.90;;;2.70;;
66402;SDS011;53212;52.112;5.144;2023-04-03T07:04:18;5.10;;;1.90;;
66402;SDS011;53212;52.112;5.144;2023-04-03T07:06:45;6.30;;;2.20;;
66402;SDS011;53212;52.112;5.144;2023-04-03T07:09:12;4.60;;;2.10;;
66402;SDS011;53212;52.112;5.144;2023-04-03T07:11:38;5.90;;;2.20;;
66402;SDS011;53212;52.112;5.144;2023-04-03T07:14:04;6.50;;;2.40;;
66402;SDS011;53212;52.112;5.144;2023-04-03T07:16:31;3.00;;;2.00;;
66402;SDS011;53212;52.112;5.144;2023-04-03T07:18:57;3.90;;;2.10;;
66402;SDS011;53212;52.112;5.144;2023-04-03T07:21:23;6.90;;;2.20;;
66402;SDS011;53212;52.112;5.144;2023-04-03T07:23:49;4.60;;;2.40;;
66402;SDS011;53212;52.112;5.144;2023-04-03T07:26:15;7.40;;;2.30;;
66402;SDS011;53212;52.112;5.144;2023-04-03T07:28:40;5.90;;;2.00;;
66402;SDS011;53212;52.112;5.144;2023-04-03T07:31:10;3.40;;;2.30;;
66402;SDS011;53212;52.112;5.144;2023-04-03T07:33:38;3.90;;;2.10;;
66402;SDS011;53212;52.112;5.144;2023-04-03T07:36:05;3.20;;;1.90;;
66402;SDS011;53212;52.112;5.144;2023-04-03T07:38:33;6.10;;;2.10;;
66402;SDS011;53212;52.112;5.144;2023-04-03T07:41:02;5.60;;;2.20;;
66402;SDS011;53212;52.112;5.144;2023-04-03T07:43:28;4.50;;;2.30;;
66402;SDS011;53212;52.112;5.144;2023-04-03T07:45:53;4.30;;;1.90;;
66402;SDS011;53212;52.112;5.144;2023-04-03T07:48:23;5.60;;;2.20;;
66402;SDS011;53212;52.112;5.144;2023-04-03T07:50:50;5.60;;;2.30;;
66402;SDS011;53212;52.112;5.144;2023-04-03T07:53:17;5.70;;;2.10;;
66402;SDS011;53212;52.112;5.144;2023-04-03T07:55:46;3.30;;;1.70;;
66402;SDS011;53212;52.112;5.144;2023-04-03T07:58:15;3.40;;;1.70;;
66402;SDS011;53212;52.112;5.144;2023-04-03T08:00:43;4.00;;;1.80;;
66402;SDS011;53212;52.112;5.144;2023-04-03T08:03:10;3.50;;;1.70;;
66402;SDS011;53212;52.112;5.144;2023-04-03T08:05:37;4.70;;;1.80;;
66402;SDS011;53212;52.112;5.144;2023-04-03T08:08:04;2.90;;;1.70;;
66402;SDS011;53212;52.112;5.144;2023-04-03T08:10:31;4.40;;;1.70;;
66402;SDS011;53212;52.112;5.144;2023-04-03T08:12:56;4.10;;;1.70;;
66402;SDS011;53212;52.112;5.144;2023-04-03T08:15:22;4.10;;;1.70;;
66402;SDS011;53212;52.112;5.144;2023-04-03T08:17:48;3.60;;;2.00;;
66402;SDS011;53212;52.112;5.144;2023-04-03T08:20:14;4.00;;;1.70;;
66402;SDS011;53212;52.112;5.144;2023-04-03T08:22:40;4.90;;;2.00;;
66402;SDS011;53212;52.112;5.144;2023-04-03T08:25:07;4.10;;;2.30;;
66402;SDS011;53212;52.112;5.144;2023-04-03T08:27:33;4.00;;;1.80;;
66402;SDS011;53212;52.112;5.144;2023-04-03T08:29:58;2.90;;;1.40;;
66402;SDS011;53212;52.112;5.144;2023-04-03T08:32:24;2.50;;;1.50;;
66402;SDS011;53212;52.112;5.144;2023-04-03T08:34:50;4.10;;;1.70;;
66402;SDS011;53212;52.112;5.144;2023-04-03T08:37:15;5.50;;;1.60;;
66402;SDS011;53212;52.112;5.144;2023-04-03T08:39:44;2.30;;;1.40;;
66402;SDS011;53212;52.112;5.144;2023-04-03T08:42:35;2.00;;;1.30;;
66402;SDS011;53212;52.112;5.144;2023-04-03T08:48:08;2.40;;;1.30;;
66402;SDS011;53212;52.112;5.144;2023-04-03T08:50:45;4.20;;;1.40;;
66402;SDS011;53212;52.112;5.144;2023-04-03T08:53:25;3.80;;;1.80;;
66402;SDS011;53212;52.112;5.144;2023-04-03T08:55:56;1.40;;;1.10;;
66402;SDS011;53212;52.112;5.144;2023-04-03T08:58:30;2.50;;;1.00;;
66402;SDS011;53212;52.112;5.144;2023-04-03T09:01:07;1.80;;;1.30;;
66402;SDS011;53212;52.112;5.144;2023-04-03T09:03:42;1.50;;;1.00;;
66402;SDS011;53212;52.112;5.144;2023-04-03T09:06:23;2.00;;;1.10;;
66402;SDS011;53212;52.112;5.144;2023-04-03T09:11:57;1.20;;;1.00;;
66402;SDS011;53212;52.112;5.144;2023-04-03T09:17:41;2.00;;;1.20;;
66402;SDS011;53212;52.112;5.144;2023-04-03T09:22:54;2.10;;;0.90;;
66402;SDS011;53212;52.112;5.144;2023-04-03T09:25:25;1.30;;;0.90;;
66402;SDS011;53212;52.112;5.144;2023-04-03T09:27:54;1.70;;;1.10;;
66402;SDS011;53212;52.112;5.144;2023-04-03T09:30:23;0.80;;;0.80;;
66402;SDS011;53212;52.112;5.144;2023-04-03T09:32:52;1.30;;;0.80;;
66402;SDS011;53212;52.112;5.144;2023-04-03T09:37:50;0.90;;;0.70;;
66402;SDS011;53212;52.112;5.144;2023-04-03T09:42:59;0.70;;;0.60;;
66402;SDS011;53212;52.112;5.144;2023-04-03T09:45:31;1.40;;;0.90;;
66402;SDS011;53212;52.112;5.144;2023-04-03T09:50:53;1.70;;;0.80;;
66402;SDS011;53212;52.112;5.144;2023-04-03T09:53:41;1.40;;;0.90;;
66402;SDS011;53212;52.112;5.144;2023-04-03T09:56:28;1.50;;;0.70;;
66402;SDS011;53212;52.112;5.144;2023-04-03T10:04:18;0.80;;;0.60;;
66402;SDS011;53212;52.112;5.144;2023-04-03T10:06:47;1.00;;;0.70;;
66402;SDS011;53212;52.112;5.144;2023-04-03T10:14:30;1.40;;;0.90;;
66402;SDS011;53212;52.112;5.144;2023-04-03T10:19:47;0.90;;;0.70;;
66402;SDS011;53212;52.112;5.144;2023-04-03T10:25:14;2.50;;;0.80;;
66402;SDS011;53212;52.112;5.144;2023-04-03T10:28:09;1.60;;;0.60;;
66402;SDS011;53212;52.112;5.144;2023-04-03T10:34:19;2.60;;;0.80;;
66402;SDS011;53212;52.112;5.144;2023-04-03T10:40:02;0.90;;;0.80;;
66402;SDS011;53212;52.112;5.144;2023-04-03T10:42:55;0.90;;;0.80;;
66402;SDS011;53212;52.112;5.144;2023-04-03T10:45:49;0.90;;;0.50;;
66402;SDS011;53212;52.112;5.144;2023-04-03T10:54:42;0.80;;;0.60;;
66402;SDS011;53212;52.112;5.144;2023-04-03T10:57:30;0.50;;;0.50;;
66402;SDS011;53212;52.112;5.144;2023-04-03T11:00:04;1.00;;;0.70;;
66402;SDS011;53212;52.112;5.144;2023-04-03T11:02:57;1.40;;;0.80;;
66402;SDS011;53212;52.112;5.144;2023-04-03T11:05:48;2.60;;;0.60;;
66402;SDS011;53212;52.112;5.144;2023-04-03T11:11:00;1.10;;;0.50;;
66402;SDS011;53212;52.112;5.144;2023-04-03T11:13:38;1.30;;;0.70;;
66402;SDS011;53212;52.112;5.144;2023-04-03T11:16:22;0.90;;;0.60;;
66402;SDS011;53212;52.112;5.144;2023-04-03T11:18:58;1.10;;;0.50;;
66402;SDS011;53212;52.112;5.144;2023-04-03T11:21:29;1.90;;;0.60;;
66402;SDS011;53212;52.112;5.144;2023-04-03T11:24:00;0.90;;;0.60;;
66402;SDS011;53212;52.112;5.144;2023-04-03T11:26:36;0.70;;;0.60;;
66402;SDS011;53212;52.112;5.144;2023-04-03T11:29:11;1.00;;;0.60;;
66402;SDS011;53212;52.112;5.144;2023-04-03T11:31:55;0.80;;;0.60;;
66402;SDS011;53212;52.112;5.144;2023-04-03T11:34:41;0.80;;;0.70;;
66402;SDS011;53212;52.112;5.144;2023-04-03T11:37:33;1.20;;;0.70;;
66402;SDS011;53212;52.112;5.144;2023-04-03T11:40:04;0.80;;;0.60;;
66402;SDS011;53212;52.112;5.144;2023-04-03T11:42:39;0.60;;;0.60;;
66402;SDS011;53212;52.112;5.144;2023-04-03T11:50:46;1.20;;;0.80;;
66402;SDS011;53212;52.112;5.144;2023-04-03T11:58:16;1.60;;;0.70;;
66402;SDS011;53212;52.112;5.144;2023-04-03T12:01:02;0.70;;;0.70;;
66402;SDS011;53212;52.112;5.144;2023-04-03T12:16:54;1.30;;;0.80;;
66402;SDS011;53212;52.112;5.144;2023-04-03T12:19:38;2.10;;;1.00;;
66402;SDS011;53212;52.112;5.144;2023-04-03T12:22:16;1.20;;;1.00;;
66402;SDS011;53212;52.112;5.144;2023-04-03T12:24:47;1.60;;;1.00;;
66402;SDS011;53212;52.112;5.144;2023-04-03T12:30:24;2.20;;;1.00;;
66402;SDS011;53212;52.112;5.144;2023-04-03T12:33:10;2.20;;;1.10;;
66402;SDS011;53212;52.112;5.144;2023-04-03T12:36:03;1.60;;;0.90;;
66402;SDS011;53212;52.112;5.144;2023-04-03T12:41:27;1.60;;;1.20;;
66402;SDS011;53212;52.112;5.144;2023-04-03T12:46:48;1.10;;;0.90;;
66402;SDS011;53212;52.112;5.144;2023-04-03T12:52:39;1.80;;;0.90;;
66402;SDS011;53212;52.112;5.144;2023-04-03T12:55:17;1.90;;;0.80;;
66402;SDS011;53212;52.112;5.144;2023-04-03T12:57:45;3.10;;;0.90;;
66402;SDS011;53212;52.112;5.144;2023-04-03T13:00:32;2.20;;;1.00;;
66402;SDS011;53212;52.112;5.144;2023-04-03T13:03:04;1.50;;;1.20;;
66402;SDS011;53212;52.112;5.144;2023-04-03T13:05:31;1.50;;;0.90;;
66402;SDS011;53212;52.112;5.144;2023-04-03T13:08:04;1.10;;;0.80;;
66402;SDS011;53212;52.112;5.144;2023-04-03T13:10:51;1.70;;;1.10;;
66402;SDS011;53212;52.112;5.144;2023-04-03T13:13:23;1.80;;;0.80;;
66402;SDS011;53212;52.112;5.144;2023-04-03T13:15:49;1.40;;;1.10;;
66402;SDS011;53212;52.112;5.144;2023-04-03T13:20:51;1.40;;;1.10;;
66402;SDS011;53212;52.112;5.144;2023-04-03T13:23:17;1.50;;;1.00;;
66402;SDS011;53212;52.112;5.144;2023-04-03T13:25:45;1.80;;;1.00;;
66402;SDS011;53212;52.112;5.144;2023-04-03T13:28:15;1.50;;;0.80;;
66402;SDS011;53212;52.112;5.144;2023-04-03T13:33:59;2.80;;;1.00;;
66402;SDS011;53212;52.112;5.144;2023-04-03T13:36:40;2.00;;;0.90;;
66402;SDS011;53212;52.112;5.144;2023-04-03T13:41:40;1.60;;;1.00;;
66402;SDS011;53212;52.112;5.144;2023-04-03T13:47:21;1.20;;;0.90;;
66402;SDS011;53212;52.112;5.144;2023-04-03T13:50:19;2.20;;;1.00;;
66402;SDS011;53212;52.112;5.144;2023-04-03T13:52:54;1.60;;;0.90;;
66402;SDS011;53212;52.112;5.144;2023-04-03T13:55:34;2.20;;;1.20;;
66402;SDS011;53212;52.112;5.144;2023-04-03T13:58:24;2.40;;;1.40;;
66402;SDS011;53212;52.112;5.144;2023-04-03T14:00:51;1.80;;;0.90;;
66402;SDS011;53212;52.112;5.144;2023-04-03T14:03:38;1.70;;;1.00;;
66402;SDS011;53212;52.112;5.144;2023-04-03T14:06:13;2.60;;;1.10;;
66402;SDS011;53212;52.112;5.144;2023-04-03T14:08:40;1.50;;;1.10;;
66402;SDS011;53212;52.112;5.144;2023-04-03T14:11:16;1.70;;;1.30;;
66402;SDS011;53212;52.112;5.144;2023-04-03T14:13:47;1.50;;;1.10;;
66402;SDS011;53212;52.112;5.144;2023-04-03T14:16:16;1.80;;;1.10;;
66402;SDS011;53212;52.112;5.144;2023-04-03T14:18:45;1.10;;;1.00;;
66402;SDS011;53212;52.112;5.144;2023-04-03T14:21:13;3.30;;;1.40;;
66402;SDS011;53212;52.112;5.144;2023-04-03T14:23:40;2.40;;;1.20;;
66402;SDS011;53212;52.112;5.144;2023-04-03T14:26:22;1.70;;;1.00;;
66402;SDS011;53212;52.112;5.144;2023-04-03T14:28:51;1.40;;;1.00;;
66402;SDS011;53212;52.112;5.144;2023-04-03T14:31:19;2.40;;;1.10;;
66402;SDS011;53212;52.112;5.144;2023-04-03T14:33:46;3.10;;;1.20;;
66402;SDS011;53212;52.112;5.144;2023-04-03T14:36:17;1.80;;;1.00;;
66402;SDS011;53212;52.112;5.144;2023-04-03T14:38:46;1.20;;;1.10;;
66402;SDS011;53212;52.112;5.144;2023-04-03T14:41:14;1.40;;;1.00;;
66402;SDS011;53212;52.112;5.144;2023-04-03T14:43:40;1.20;;;1.00;;
66402;SDS011;53212;52.112;5.144;2023-04-03T14:46:16;2.10;;;1.00;;
66402;SDS011;53212;52.112;5.144;2023-04-03T14:48:43;2.60;;;1.00;;
66402;SDS011;53212;52.112;5.144;2023-04-03T14:51:14;1.60;;;1.20;;
66402;SDS011;53212;52.112;5.144;2023-04-03T14:53:41;1.40;;;1.30;;
66402;SDS011;53212;52.112;5.144;2023-04-03T14:56:18;1.70;;;1.10;;
66402;SDS011;53212;52.112;5.144;2023-04-03T14:58:48;1.30;;;1.20;;
66402;SDS011;53212;52.112;5.144;2023-04-03T15:01:17;2.60;;;1.10;;
66402;SDS011;53212;52.112;5.144;2023-04-03T15:03:43;2.10;;;1.40;;
66402;SDS011;53212;52.112;5.144;2023-04-03T15:06:13;2.80;;;1.10;;
66402;SDS011;53212;52.112;5.144;2023-04-03T15:08:41;1.80;;;1.10;;
66402;SDS011;53212;52.112;5.144;2023-04-03T15:11:11;3.10;;;1.10;;
66402;SDS011;53212;52.112;5.144;2023-04-03T15:13:38;2.70;;;1.30;;
66402;SDS011;53212;52.112;5.144;2023-04-03T15:16:04;1.60;;;1.20;;
66402;SDS011;53212;52.112;5.144;2023-04-03T15:18:37;1.60;;;1.00;;
66402;SDS011;53212;52.112;5.144;2023-04-03T15:21:04;1.70;;;1.20;;
66402;SDS011;53212;52.112;5.144;2023-04-03T15:23:30;2.00;;;1.40;;
66402;SDS011;53212;52.112;5.144;2023-04-03T15:25:55;1.20;;;1.10;;
66402;SDS011;53212;52.112;5.144;2023-04-03T15:30:52;2.30;;;1.40;;
66402;SDS011;53212;52.112;5.144;2023-04-03T15:33:18;4.00;;;1.30;;
66402;SDS011;53212;52.112;5.144;2023-04-03T15:35:43;2.80;;;1.50;;
66402;SDS011;53212;52.112;5.144;2023-04-03T15:38:09;2.40;;;1.30;;
66402;SDS011;53212;52.112;5.144;2023-04-03T15:40:35;1.40;;;1.30;;
66402;SDS011;53212;52.112;5.144;2023-04-03T15:43:00;3.10;;;1.50;;
66402;SDS011;53212;52.112;5.144;2023-04-03T15:45:28;5.30;;;1.60;;
66402;SDS011;53212;52.112;5.144;2023-04-03T15:47:55;2.30;;;1.40;;
66402;SDS011;53212;52.112;5.144;2023-04-03T15:50:21;3.00;;;1.40;;
66402;SDS011;53212;52.112;5.144;2023-04-03T15:52:49;2.40;;;1.50;;
66402;SDS011;53212;52.112;5.144;2023-04-03T15:55:20;2.60;;;1.60;;
66402;SDS011;53212;52.112;5.144;2023-04-03T15:57:47;1.80;;;1.50;;
66402;SDS011;53212;52.112;5.144;2023-04-03T16:00:13;2.40;;;1.50;;
66402;SDS011;53212;52.112;5.144;2023-04-03T16:02:40;2.30;;;1.40;;
66402;SDS011;53212;52.112;5.144;2023-04-03T16:05:07;3.00;;;1.40;;
66402;SDS011;53212;52.112;5.144;2023-04-03T16:07:33;2.10;;;1.60;;
66402;SDS011;53212;52.112;5.144;2023-04-03T16:09:59;2.60;;;1.50;;
66402;SDS011;53212;52.112;5.144;2023-04-03T16:12:25;4.90;;;1.70;;
66402;SDS011;53212;52.112;5.144;2023-04-03T16:14:50;4.40;;;1.60;;
66402;SDS011;53212;52.112;5.144;2023-04-03T16:17:16;2.20;;;1.20;;
66402;SDS011;53212;52.112;5.144;2023-04-03T16:19:42;1.60;;;1.50;;
66402;SDS011;53212;52.112;5.144;2023-04-03T16:22:07;3.60;;;1.70;;
66402;SDS011;53212;52.112;5.144;2023-04-03T16:24:33;1.80;;;1.30;;
66402;SDS011;53212;52.112;5.144;2023-04-03T16:27:00;2.20;;;1.40;;
66402;SDS011;53212;52.112;5.144;2023-04-03T16:29:26;3.00;;;1.50;;
66402;SDS011;53212;52.112;5.144;2023-04-03T16:31:51;4.50;;;1.70;;
66402;SDS011;53212;52.112;5.144;2023-04-03T16:34:17;2.30;;;1.50;;
66402;SDS011;53212;52.112;5.144;2023-04-03T16:36:43;1.80;;;1.30;;
66402;SDS011;53212;52.112;5.144;2023-04-03T16:39:08;3.70;;;1.50;;
66402;SDS011;53212;52.112;5.144;2023-04-03T16:41:35;2.70;;;1.40;;
66402;SDS011;53212;52.112;5.144;2023-04-03T16:44:01;2.70;;;1.40;;
66402;SDS011;53212;52.112;5.144;2023-04-03T16:46:27;3.00;;;1.70;;